Broken Bow, OK (74728)

10:08 AM CST on February 10, 2016 (GMT -0600)
RAWS | | Change Station
CLOSE
Current Station
Personal Weather Station
Location: Broken Bow, OK
Elevation: 500 ft
Nearby Weather Stations

Elev 500 ft 34.05 °N, 94.74 °W | Updated 1 hour ago

Clear
Clear
39.0 °F
Feels Like 39.0 °F
N
2.0
Wind Variable Wind from West
Gusts 4.0 mph

Today
High -- | Low -- °F
--% Chance of Precip.
Yesterday
High -- | Low -- °F
Precip. -- in
Pressure 30.34 in
Visibility 10.0 miles
Clouds Clear
Dew Point 13.0 °F
Humidity 34%
Rainfall in
Snow Depth Not available.
7:08 AM 5:57 PM
Waxing Crescent, 6% visible
METAR K4O4 101555Z AUTO 00000KT 10SM CLR 05/M10 A3034 RMK AO2
Pressure 30.34 in
Visibility 10.0 miles
Clouds Clear
Dew Point 13.0 °F
Humidity 34%
Rainfall in
Snow Depth Not available.
7:08 AM 5:57 PM
Waxing Crescent, 6% visible
METAR K4O4 101555Z AUTO 00000KT 10SM CLR 05/M10 A3034 RMK AO2

10-Day Weather Forecast

Almanac

Astronomy

Feb. 10, 2016 Rise Set
Actual Time
Civil Twilight
Nautical Twilight
Astronomical Twilight
Moon
Length of Visible Light
Length of Day
Tomorrow will be .
, % of the Moon is Illuminated

Today's Extremes

State Highs State Lows

Community

WunderPhotos

Upload Photos

1,891,862 photos uploaded!

WunderBlog® & News

Nearby

Air Quality

  Air Quality AQ Index Pollutant
Not available.

Snow Depth

Station Depth Elevation

Earthquake Activity

City Distance Mag. Time & Date
Minimum magnitude displayed is 2.5.

Coastal Water Temperatures

Place Temperature

Stations

Nearby Weather Stations

Station Location Temp. Windchill Dew Point Humidity Wind Precip. Elev Updated Type
                   

Watches & Warnings

There are currently no watches in effect.